• Join FlightAware (Why Join?)
  • Login
  • US Flag 
05:08AM EDT


 

Airport Tracker/Info


-or-


 

Live Flight TrackerFlight Track Log ✈ TCF3480 ✈ 11-May-2013 ✈ KABQ - KORD

Flight Track Log - Related Links

Times and Time Zones

All times are in EDT time to prevent confusion due to time zone crossing. See the TCF3480 flight status page for this flight to view local times or setup timezone preferences in your user account.

Time Position Orientation Groundspeed Altitude Reporting Facility
EDT Latitude Longitude Course Direction KTS MPH feet Rate Location/Type
03:30PM 35.0428 -106.5744 72° East 168 193 6,400  Level Albuquerque Center
03:31PM 34.9894 -106.5622 169° South 211 243 8,100 1,440 Climbing Albuquerque Center
03:32PM 34.9592 -106.5628 181° South 220 253 8,500 1,980 Climbing Albuquerque Center
03:32PM 34.9317 -106.5253 132° Southeast 277 319 10,100 2,700 Climbing Albuquerque Center
03:33PM 35.3613 -106.4041 80° East  Level FlightAware Approximate
03:33PM 34.9367 -106.4878 81° East 257 296 11,300  Level Albuquerque Center
03:34PM 35.3900 -106.2784 72° East  Level FlightAware Approximate
03:34PM 34.9736 -106.4125 59° Northeast 258 297 14,200  Level Albuquerque Center
03:35PM 35.4228 -106.1538 72° East  Level FlightAware Approximate
03:35PM 35.0161 -106.3358 56° Northeast 269 310 16,800  Level Albuquerque Center
03:36PM 35.0592 -106.2556 57° Northeast 280 322 18,400 2,040 Climbing Albuquerque Center
03:37PM 35.1094 -106.1619 57° Northeast 290 334 21,000 1,440 Climbing Albuquerque Center
03:38PM 35.1528 -106.0808 57° Northeast 321 369 21,400 1,020 Climbing Albuquerque Center
03:39PM 35.2175 -105.9617 56° Northeast 355 409 23,200 1,620 Climbing Albuquerque Center
03:40PM 35.2736 -105.8550 57° Northeast 368 423 24,800 1,440 Climbing Albuquerque Center
03:41PM 35.3353 -105.7481 55° Northeast 377 434 26,200 1,320 Climbing Albuquerque Center
03:42PM 35.3922 -105.6378 58° Northeast 380 437 27,600 1,260 Climbing Albuquerque Center
03:43PM 35.4511 -105.5278 57° Northeast 381 438 28,900 1,140 Climbing Albuquerque Center
03:44PM 35.5086 -105.4150 58° Northeast 383 441 30,000 960 Climbing Albuquerque Center
03:45PM 35.5711 -105.2969 57° Northeast 398 458 30,900 780 Climbing Albuquerque Center
03:46PM 35.6317 -105.1769 58° Northeast 406 467 31,700 960 Climbing Albuquerque Center
03:47PM 35.6922 -105.0539 59° Northeast 413 475 32,900 600 Climbing Albuquerque Center
03:48PM 35.7511 -104.9322 59° Northeast 411 473 33,000  Climbing Albuquerque Center
03:49PM 35.8092 -104.8117 59° Northeast 406 467 33,000  Level Albuquerque Center
03:50PM 35.8689 -104.6875 59° Northeast 411 473 33,000  Level Albuquerque Center
03:51PM 35.9383 -104.5436 59° Northeast 412 474 33,000  Level Albuquerque Center
03:52PM 35.9817 -104.4122 68° East 415 478 33,000  Level Albuquerque Center
03:53PM 36.0197 -104.2742 71° East 419 482 33,000  Level Albuquerque Center
03:54PM 36.0578 -104.1375 71° East 418 481 33,000  Level Albuquerque Center
03:55PM 36.1094 -104.0083 64° Northeast 413 475 33,000  Level Albuquerque Center
03:56PM 36.1647 -103.8800 62° Northeast 416 479 33,000  Level Albuquerque Center
03:57PM 36.2183 -103.7511 63° Northeast 417 480 33,000  Level Albuquerque Center
03:58PM 36.2731 -103.6200 63° Northeast 421 484 33,000  Level Albuquerque Center
03:59PM 36.3275 -103.4906 62° Northeast 420 483 33,000  Level Albuquerque Center
04:00PM 36.3808 -103.3606 63° Northeast 419 482 33,000  Level Albuquerque Center
04:01PM 36.4347 -103.2297 63° Northeast 421 484 33,000  Level Albuquerque Center
04:02PM 36.4892 -103.1008 62° Northeast 420 483 33,000  Level Albuquerque Center
04:03PM 36.5508 -102.9483 63° Northeast 420 483 33,000  Level Albuquerque Center
04:04PM 36.6036 -102.8169 63° Northeast 420 483 33,000  Level Albuquerque Center
04:05PM 36.6544 -102.6928 63° Northeast 419 482 33,000  Level Albuquerque Center
04:06PM 36.7044 -102.5681 63° Northeast 420 483 33,000  Level Albuquerque Center
04:07PM 36.7614 -102.4247 64° Northeast 424 488 33,000  Level Albuquerque Center
04:08PM 36.8136 -102.2953 63° Northeast 421 484 33,000  Level Albuquerque Center
04:10PM 36.8703 -102.1539 63° Northeast 420 483 33,000  Level Albuquerque Center
04:11PM 36.9206 -102.0294 63° Northeast 421 484 33,000  Level Albuquerque Center
04:12PM 36.9781 -101.8822 64° Northeast 423 487 33,000  Level Albuquerque Center
04:13PM 37.0278 -101.7542 64° Northeast 426 490 33,000  Level Albuquerque Center
04:14PM 37.0864 -101.6092 63° Northeast 422 486 33,000  Level Albuquerque Center
04:15PM 37.1353 -101.4825 64° Northeast 421 484 33,000  Level Albuquerque Center
04:15PM 37.1589 -101.4186 65° Northeast 422 486 33,000  Level Kansas City Center
04:16PM 37.2086 -101.2908 64° Northeast 425 489 33,000  Level Kansas City Center
04:17PM 37.2653 -101.1456 64° Northeast 420 483 33,000  Level Kansas City Center
04:18PM 37.3139 -101.0203 64° Northeast 419 482 33,000  Level Kansas City Center
04:19PM 37.3694 -100.8731 65° Northeast 420 483 33,000  Level Kansas City Center
04:20PM 37.4186 -100.7467 64° Northeast 423 487 33,000  Level Kansas City Center
04:21PM 37.4747 -100.5994 64° Northeast 423 487 33,000  Level Kansas City Center
04:22PM 37.5225 -100.4731 64° Northeast 423 487 33,000  Level Kansas City Center
04:23PM 37.5786 -100.3233 65° Northeast 424 488 33,000  Level Kansas City Center
04:24PM 37.6278 -100.1950 64° Northeast 426 490 33,000  Level Kansas City Center
04:25PM 37.6847 -100.0442 64° Northeast 428 493 33,000  Level Kansas City Center
04:26PM 37.7333 -99.9164 64° Northeast 424 488 33,000  Level Kansas City Center
04:27PM 37.7797 -99.7869 66° East 424 488 33,000  Level Kansas City Center
04:28PM 37.8358 -99.6364 65° Northeast 425 489 33,000  Level Kansas City Center
04:29PM 37.8831 -99.5050 65° Northeast 428 493 33,000  Level Kansas City Center
04:31PM 37.9369 -99.3572 65° Northeast 431 496 33,000  Level Kansas City Center
04:32PM 37.9872 -99.2183 65° Northeast 433 498 33,000  Level Kansas City Center
04:33PM 38.0381 -99.0775 65° Northeast 438 504 33,000  Level Kansas City Center
04:34PM 38.0883 -98.9367 66° East 437 503 33,000  Level Kansas City Center
04:35PM 38.1414 -98.7939 65° Northeast 443 510 33,000  Level Kansas City Center
04:36PM 38.1919 -98.6517 66° East 442 509 33,000  Level Kansas City Center
04:37PM 38.2428 -98.5083 66° East 443 510 33,000  Level Kansas City Center
04:38PM 38.3047 -98.3317 66° East 451 519 33,000  Level Kansas City Center
04:39PM 38.3558 -98.1858 66° East 449 517 33,000  Level Kansas City Center
04:40PM 38.4067 -98.0400 66° East 448 516 33,000  Level Kansas City Center
04:41PM 38.4581 -97.8931 66° East 450 518 33,000  Level Kansas City Center
04:42PM 38.5094 -97.7456 66° East 451 519 33,000  Level Kansas City Center
04:43PM 38.5606 -97.5978 66° East 453 521 33,000  Level Kansas City Center
04:44PM 38.6108 -97.4508 66° East 450 518 33,000  Level Kansas City Center
04:45PM 38.6603 -97.3042 67° East 449 517 33,000  Level Kansas City Center
04:46PM 38.7100 -97.1578 66° East 449 517 33,000  Level Kansas City Center
04:47PM 38.7694 -96.9833 66° East 446 513 33,000  Level Kansas City Center
04:48PM 38.8178 -96.8356 67° East 447 514 33,000  Level Kansas City Center
04:49PM 38.8686 -96.6875 66° East 452 520 33,000  Level Kansas City Center
04:50PM 38.9189 -96.5403 66° East 451 519 33,000  Level Kansas City Center
04:51PM 38.9661 -96.3922 68° East 456 525 33,000  Level Kansas City Center
04:52PM 39.0206 -96.2208 68° East 464 534 33,000  Level Kansas City Center
04:53PM 39.0692 -96.0750 67° East 463 533 33,000  Level Kansas City Center
04:54PM 39.1253 -95.9011 67° East 469 540 33,000  Level Kansas City Center
04:55PM 39.1744 -95.7508 67° East 475 547 33,000  Level Kansas City Center
04:56PM 39.2300 -95.5767 68° East 470 541 33,000  Level Kansas City Center
04:57PM 39.2797 -95.4194 68° East 472 543 33,000  Level Kansas City Center
04:58PM 39.3303 -95.2644 67° East 469 540 33,000  Level Kansas City Center
04:59PM 39.3875 -95.0964 66° East 473 544 33,000  Level Kansas City Center
05:00PM 39.4383 -94.9456 66° East 475 547 33,000  Level Kansas City Center
05:01PM 39.4892 -94.7950 66° East 474 545 33,000  Level Kansas City Center
05:02PM 39.5469 -94.6197 67° East 474 545 33,000  Level Kansas City Center
05:03PM 39.5964 -94.4700 67° East 473 544 33,000  Level Kansas City Center
05:04PM 39.6547 -94.2928 67° East 477 549 33,000  Level Kansas City Center
05:05PM 39.7036 -94.1431 67° East 472 543 33,000  Level Kansas City Center
05:06PM 39.7533 -93.9922 67° East 474 545 33,000  Level Kansas City Center
05:08PM 39.8125 -93.8097 67° East 479 551 33,000  Level Kansas City Center
05:09PM 39.8633 -93.6422 68° East 484 557 33,000  Level Kansas City Center
05:10PM 39.9164 -93.4844 66° East 484 557 33,000  Level Kansas City Center
05:11PM 39.9672 -93.3258 67° East 482 555 33,000  Level Kansas City Center
05:12PM 40.0172 -93.1658 68° East 481 554 33,000  Level Kansas City Center
05:13PM 40.0714 -92.9886 68° East 483 556 33,000  Level Kansas City Center
05:14PM 40.1203 -92.8328 68° East 484 557 33,000  Level Kansas City Center
05:15PM 40.1764 -92.6497 68° East 484 557 33,000  Level Kansas City Center
05:16PM 40.2222 -92.4919 69° East 484 557 33,000  Level Kansas City Center
05:17PM 40.2756 -92.3328 66° East 489 563 33,000  Level Kansas City Center
05:18PM 40.3347 -92.1353 68° East 491 565 33,000  Level Kansas City Center
05:19PM 40.3839 -91.9708 69° East 490 564 33,000  Level Kansas City Center
05:20PM 40.4336 -91.8058 68° East 491 565 33,000  Level Kansas City Center
05:21PM 40.4828 -91.6406 69° East 490 564 33,000  Level Kansas City Center
05:22PM 40.5331 -91.4722 68° East 497 572 33,000  Level Chicago Center
05:23PM 40.5881 -91.3089 66° East 494 568 33,000  Level Chicago Center
05:24PM 40.6419 -91.1497 66° East 495 570 33,000  Level Chicago Center
05:25PM 40.7086 -90.9500 66° East 497 572 33,000  Level Chicago Center
05:26PM 40.7661 -90.7831 66° East 500 575 33,000  Level Chicago Center
05:27PM 40.8222 -90.6147 66° East 500 575 33,000  Level Chicago Center
05:28PM 40.8764 -90.4483 67° East 495 570 33,000 -240 Level Chicago Center
05:29PM 40.9325 -90.2800 66° East 497 572 32,600 -1,200 Descending Chicago Center
05:30PM 40.9931 -90.1003 66° East 496 571 30,600 -1,980 Descending Chicago Center
05:31PM 41.0442 -89.9456 66° East 490 564 28,600 -2,040 Descending Chicago Center
05:32PM 41.0964 -89.7847 67° East 475 547 26,500 -1,980 Descending Chicago Center
05:33PM 41.1467 -89.6308 67° East 460 529 24,600 -2,100 Descending Chicago Center
05:34PM 41.2019 -89.4869 63° Northeast 443 510 22,300 -2,160 Descending Chicago Center
05:35PM 41.2569 -89.3508 62° Northeast 425 489 20,300 -1,980 Descending Chicago Center
05:36PM 41.3108 -89.2178 62° Northeast 411 473 18,300 -2,040 Descending Chicago Center
05:37PM 41.3703 -89.0664 62° Northeast 392 451 16,200 -1,920 Descending Chicago Center
05:38PM 41.4189 -88.9419 62° Northeast 383 441 14,400 -1,860 Descending Chicago Center
05:39PM 41.4664 -88.8217 62° Northeast 367 422 12,500 -1,680 Descending Chicago Center
05:40PM 41.5114 -88.7092 62° Northeast 347 399 11,000 -1,080 Descending Chicago Center
05:41PM 41.5583 -88.5878 63° Northeast 363 418 10,400 -300 Descending Chicago Center
05:42PM 41.6056 -88.4658 63° Northeast 367 422 10,500 -180 Climbing Chicago Center
05:43PM 41.6669 -88.3664 50° Northeast 338 389 10,100 -600 Descending Chicago Center
05:44PM 41.7186 -88.2786 52° Northeast 303 349 9,300 -1,080 Descending Chicago Center
05:45PM 41.7672 -88.1933 53° Northeast 289 333 7,900 -1,140 Descending Chicago Center
05:46PM 41.8236 -88.0978 52° Northeast 275 316 7,000 -480 Descending Chicago Center
05:47PM 41.8628 -88.0264 54° Northeast 251 289 7,000  Level Chicago Center
05:48PM 41.8833 -87.9667 65° Northeast 216 249 7,000  Level Chicago TRACON
05:49PM 41.8833 -87.9000 90° East 220 253 7,000  Level Chicago TRACON
05:50PM 41.8833 -87.8167 90° East 221 254 7,000 -720 Level Chicago TRACON
05:51PM 41.8833 -87.7333 90° East 214 246 5,700 -1,320 Descending Chicago TRACON
05:52PM 41.8833 -87.6667 90° East 208 239 4,400 -900 Descending Chicago TRACON
05:53PM 41.8833 -87.5833 90° East 211 243 4,000 -240 Descending Chicago TRACON
05:54PM 41.8833 -87.5000 90° East 212 244 4,000  Level Chicago TRACON
05:55PM 41.8833 -87.4167 90° East 210 242 4,000  Level Chicago TRACON
05:56PM 41.9000 -87.3833 56° Northeast 207 238 4,000  Level Chicago TRACON
05:57PM 41.9333 -87.4000 340° North 156 180 4,000  Level Chicago TRACON
05:58PM 41.9500 -87.4667 289° West 156 180 4,000  Level Chicago TRACON
05:59PM 41.9667 -87.5167 294° West 160 184 4,000  Level Chicago TRACON
06:00PM 41.9667 -87.5667 270° West 162 186 4,000  Level Chicago TRACON
06:01PM 41.9667 -87.6333 270° West 166 191 4,000 -300 Level Chicago TRACON
06:02PM 41.9667 -87.6833 270° West 167 192 3,500 -780 Descending Chicago TRACON
06:03PM 41.9667 -87.7500 270° West 164 189 2,600 -900 Descending Chicago TRACON